Wetterdaten: Woche 11.12.17 - 17.12.17 (KW50)
Datum Zeit Temp. A. Feuchte A. Luftdruck Regen Wind Richtung Taupunkt Windchill Windben
11.12.2017 00:00 4,1 C 63 % 995,4 hPa 0,0 l/m 0,8 km/h N -2,3 C 4,1 C 10,5 km/h
11.12.2017 01:00 3,6 C 69 % 994,7 hPa 0,0 l/m 0,8 km/h N -1,5 C 3,6 C 8,1 km/h
11.12.2017 02:00 3,3 C 73 % 994,3 hPa 0,0 l/m 0,0 km/h N -1,1 C 3,3 C 3,2 km/h
11.12.2017 03:00 3,4 C 74 % 993,8 hPa 0,0 l/m 0,0 km/h N -0,8 C 3,4 C 4,0 km/h
11.12.2017 04:00 3,7 C 77 % 994,0 hPa 0,0 l/m 0,0 km/h N 0,1 C 3,7 C 4,0 km/h
11.12.2017 05:00 3,6 C 79 % 993,5 hPa 0,0 l/m 0,0 km/h N 0,2 C 3,6 C 5,6 km/h
11.12.2017 06:00 3,7 C 80 % 993,1 hPa 0,0 l/m 0,0 km/h N 0,6 C 3,7 C 2,4 km/h
11.12.2017 07:00 4,3 C 81 % 993,1 hPa 0,0 l/m 0,8 km/h N 1,2 C 4,3 C 8,9 km/h
11.12.2017 08:00 5,6 C 80 % 993,0 hPa 0,0 l/m 3,2 km/h N 2,3 C 5,6 C 18,5 km/h
11.12.2017 09:00 6,5 C 79 % 993,5 hPa 0,0 l/m 2,4 km/h N 3,1 C 6,5 C 12,9 km/h
11.12.2017 10:00 8,1 C 78 % 993,0 hPa 0,0 l/m 2,4 km/h N 4,4 C 8,1 C 13,7 km/h
11.12.2017 11:00 9,0 C 76 % 993,7 hPa 0,0 l/m 4,8 km/h N 5,0 C 9,0 C 22,5 km/h
11.12.2017 12:00 9,6 C 75 % 993,7 hPa 0,0 l/m 5,6 km/h N 5,2 C 9,6 C 27,4 km/h
11.12.2017 13:00 9,5 C 77 % 993,8 hPa 0,0 l/m 4,0 km/h N 5,6 C 9,5 C 20,9 km/h
11.12.2017 14:00 9,9 C 78 % 993,9 hPa 0,0 l/m 2,4 km/h N 6,2 C 9,9 C 10,5 km/h
11.12.2017 15:00 10,3 C 78 % 994,0 hPa 0,0 l/m 2,4 km/h N 6,6 C 10,3 C 10,5 km/h
11.12.2017 16:00 10,4 C 78 % 993,5 hPa 0,0 l/m 1,6 km/h N 6,7 C 10,4 C 16,0 km/h
11.12.2017 17:00 10,9 C 79 % 992,8 hPa 0,0 l/m 5,6 km/h N 7,3 C 10,9 C 22,5 km/h
11.12.2017 18:00 10,4 C 80 % 993,3 hPa 0,0 l/m 9,6 km/h N 7,0 C 8,3 C 35,4 km/h
11.12.2017 19:00 9,9 C 81 % 993,8 hPa 0,0 l/m 6,4 km/h N 6,7 C 9,9 C 26,5 km/h
11.12.2017 20:00 9,9 C 81 % 993,3 hPa 0,0 l/m 4,8 km/h N 6,7 C 9,9 C 24,9 km/h
11.12.2017 21:00 10,6 C 80 % 993,5 hPa 0,0 l/m 6,4 km/h N 7,3 C 10,7 C 25,8 km/h
11.12.2017 22:00 10,9 C 78 % 994,3 hPa 0,0 l/m 4,8 km/h N 7,2 C 10,9 C 23,4 km/h
11.12.2017 23:00 10,9 C 77 % 994,7 hPa 0,0 l/m 2,4 km/h N 7,0 C 10,9 C 18,5 km/h
12.12.2017 00:00 10,9 C 76 % 993,9 hPa 0,0 l/m 1,6 km/h N 6,9 C 10,9 C 11,3 km/h
12.12.2017 01:00 11,8 C 74 % 993,8 hPa 0,0 l/m 2,4 km/h N 7,2 C 11,8 C 12,9 km/h
12.12.2017 02:00 12,4 C 71 % 993,6 hPa 0,0 l/m 2,4 km/h N 7,2 C 12,4 C 12,1 km/h
12.12.2017 03:00 12,3 C 72 % 994,7 hPa 0,0 l/m 3,2 km/h N 7,4 C 12,3 C 12,9 km/h
12.12.2017 04:00 11,3 C 63 % 996,5 hPa 0,0 l/m 3,2 km/h N 4,5 C 11,3 C 14,5 km/h
12.12.2017 05:00 9,7 C 67 % 998,3 hPa 0,0 l/m 10,4 km/h N 3,9 C 7,3 C 33,0 km/h
12.12.2017 06:00 7,9 C 75 % 1000,8 hPa 0,3 l/m 12,1 km/h N 3,6 C 4,1 C 41,0 km/h
12.12.2017 07:00 7,1 C 78 % 1002,2 hPa 0,0 l/m 6,4 km/h N 3,5 C 7,2 C 22,5 km/h
12.12.2017 08:00 7,5 C 75 % 1003,8 hPa 0,0 l/m 3,9 km/h N 3,2 C 7,2 C 18,1 km/h
12.12.2017 09:00 7,9 C 74 % 1005,0 hPa 0,0 l/m 1,8 km/h N 3,5 C 7,9 C 10,8 km/h
12.12.2017 10:00 8,2 C 74 % 1006,3 hPa 0,0 l/m 0,5 km/h N 3,8 C 8,2 C 5,6 km/h
12.12.2017 11:00 8,7 C 71 % 1006,9 hPa 0,0 l/m 2,8 km/h N 3,8 C 8,6 C 11,7 km/h
12.12.2017 12:00 9,5 C 63 % 1007,7 hPa 0,0 l/m 5,7 km/h N 2,8 C 9,4 C 18,5 km/h
12.12.2017 13:00 9,2 C 62 % 1008,3 hPa 0,0 l/m 8,6 km/h N 2,2 C 7,5 C 27,0 km/h
12.12.2017 14:00 8,2 C 64 % 1009,0 hPa 0,0 l/m 7,5 km/h N 1,8 C 7,4 C 25,3 km/h
12.12.2017 15:00 6,8 C 65 % 1010,3 hPa 0,0 l/m 7,1 km/h N 0,5 C 6,2 C 22,5 km/h
12.12.2017 16:00 6,2 C 63 % 1011,4 hPa 0,0 l/m 7,5 km/h N -0,4 C 5,3 C 24,5 km/h
12.12.2017 17:00 5,9 C 64 % 1012,8 hPa 0,0 l/m 9,8 km/h N -0,5 C 3,3 C 25,3 km/h
12.12.2017 18:00 5,8 C 60 % 1013,9 hPa 0,0 l/m 10,7 km/h N -1,3 C 2,5 C 29,0 km/h
12.12.2017 19:00 5,7 C 61 % 1014,7 hPa 0,0 l/m 7,1 km/h N -1,3 C 4,9 C 20,1 km/h
12.12.2017 20:00 5,4 C 64 % 1015,0 hPa 0,0 l/m 5,6 km/h N -0,9 C 5,2 C 18,9 km/h
12.12.2017 21:00 5,2 C 68 % 1016,0 hPa 0,0 l/m 4,9 km/h N -0,4 C 4,5 C 18,5 km/h
12.12.2017 22:00 4,5 C 72 % 1016,8 hPa 0,0 l/m 8,4 km/h N -0,1 C 2,8 C 23,8 km/h
12.12.2017 23:00 4,1 C 75 % 1017,5 hPa 0,0 l/m 9,2 km/h N -0,0 C 1,8 C 22,9 km/h
13.12.2017 00:00 4,3 C 73 % 1017,9 hPa 0,0 l/m 6,1 km/h N -0,1 C 3,8 C 19,3 km/h
13.12.2017 01:00 4,3 C 73 % 1017,7 hPa 0,0 l/m 3,5 km/h N -0,1 C 4,3 C 15,3 km/h
13.12.2017 02:00 4,4 C 72 % 1018,0 hPa 0,0 l/m 4,6 km/h N -0,2 C 4,4 C 16,9 km/h
13.12.2017 03:00 4,3 C 72 % 1018,1 hPa 0,0 l/m 3,7 km/h N -0,4 C 4,3 C 15,7 km/h
13.12.2017 04:00 4,1 C 71 % 1018,3 hPa 0,0 l/m 2,5 km/h N -0,7 C 4,1 C 12,5 km/h
13.12.2017 05:00 3,9 C 70 % 1018,4 hPa 0,0 l/m 2,8 km/h N -1,1 C 3,9 C 12,1 km/h
13.12.2017 06:00 3,8 C 69 % 1019,0 hPa 0,0 l/m 3,8 km/h N -1,4 C 3,8 C 14,9 km/h
13.12.2017 07:00 3,6 C 69 % 1019,5 hPa 0,0 l/m 2,5 km/h N -1,6 C 3,6 C 10,1 km/h
13.12.2017 08:00 3,6 C 69 % 1020,1 hPa 0,0 l/m 1,8 km/h N -1,6 C 3,6 C 9,6 km/h
13.12.2017 09:00 3,8 C 71 % 1019,9 hPa 0,0 l/m 3,1 km/h N -1,0 C 3,8 C 10,9 km/h
13.12.2017 10:00 4,4 C 72 % 1019,7 hPa 0,0 l/m 4,2 km/h N -0,3 C 4,4 C 12,1 km/h
13.12.2017 11:00 5,0 C 67 % 1018,8 hPa 0,0 l/m 4,3 km/h N -0,6 C 5,0 C 12,1 km/h
13.12.2017 12:00 5,3 C 63 % 1018,0 hPa 0,0 l/m 1,2 km/h N -1,2 C 5,3 C 6,4 km/h
13.12.2017 13:00 5,4 C 65 % 1017,2 hPa 0,0 l/m 0,0 km/h N -0,7 C 5,4 C 5,6 km/h
13.12.2017 14:00 5,8 C 64 % 1016,1 hPa 0,0 l/m 1,2 km/h N -0,5 C 5,8 C 6,0 km/h
13.12.2017 15:00 5,1 C 66 % 1015,0 hPa 0,0 l/m 0,4 km/h N -0,7 C 5,1 C 4,8 km/h
13.12.2017 16:00 3,7 C 71 % 1014,0 hPa 0,0 l/m 0,2 km/h N -1,2 C 3,7 C 2,8 km/h
13.12.2017 17:00 2,2 C 75 % 1013,0 hPa 0,0 l/m 0,0 km/h N -1,9 C 2,2 C 1,2 km/h
13.12.2017 18:00 0,6 C 79 % 1012,1 hPa 0,0 l/m 0,0 km/h N -2,7 C 0,6 C 0,0 km/h
13.12.2017 19:00 0,5 C 82 % 1011,1 hPa 0,0 l/m 0,1 km/h N -2,3 C 0,5 C 2,4 km/h
13.12.2017 20:00 1,1 C 81 % 1009,9 hPa 0,0 l/m 0,6 km/h N -1,7 C 1,1 C 5,2 km/h
13.12.2017 21:00 1,5 C 76 % 1008,3 hPa 0,0 l/m 0,5 km/h N -2,3 C 1,5 C 4,8 km/h
13.12.2017 22:00 1,8 C 71 % 1006,9 hPa 0,0 l/m 0,2 km/h N -2,9 C 1,8 C 4,0 km/h
13.12.2017 23:00 1,3 C 73 % 1005,8 hPa 0,0 l/m 0,0 km/h N -3,0 C 1,3 C 0,0 km/h
14.12.2017 00:00 0,9 C 77 % 1004,2 hPa 0,0 l/m 0,0 km/h N -2,8 C 0,9 C 0,8 km/h
14.12.2017 01:00 0,3 C 80 % 1003,1 hPa 0,0 l/m 0,1 km/h N -2,8 C 0,3 C 0,8 km/h
14.12.2017 02:00 -0,9 C 81 % 1002,3 hPa 0,0 l/m 0,0 km/h N -3,8 C -0,9 C 0,4 km/h
14.12.2017 03:00 -1,2 C 82 % 1001,0 hPa 0,0 l/m 0,0 km/h N -3,9 C -1,2 C 0,8 km/h
14.12.2017 04:00 -0,3 C 84 % 1000,8 hPa 0,0 l/m 0,2 km/h N -2,7 C -0,3 C 2,4 km/h
14.12.2017 05:00 0,1 C 84 % 1000,8 hPa 0,0 l/m 0,0 km/h N -2,2 C 0,1 C 0,8 km/h
14.12.2017 06:00 0,3 C 84 % 1000,6 hPa 0,0 l/m 0,1 km/h N -2,1 C 0,3 C 1,6 km/h
14.12.2017 07:00 0,4 C 84 % 1001,1 hPa 0,0 l/m 0,3 km/h N -2,0 C 0,4 C 2,4 km/h
14.12.2017 08:00 0,9 C 84 % 1001,2 hPa 0,0 l/m 0,2 km/h N -1,5 C 0,9 C 2,4 km/h
14.12.2017 09:00 1,5 C 84 % 1001,4 hPa 0,0 l/m 0,3 km/h N -1,0 C 1,5 C 4,8 km/h
14.12.2017 10:00 3,4 C 83 % 1002,3 hPa 0,0 l/m 4,7 km/h N 0,8 C 2,4 C 21,3 km/h
14.12.2017 11:00 7,9 C 61 % 1002,8 hPa 0,0 l/m 14,1 km/h N 0,7 C 3,1 C 35,8 km/h
14.12.2017 12:00 8,4 C 53 % 1002,0 hPa 0,0 l/m 15,7 km/h N -0,7 C 2,9 C 45,9 km/h
14.12.2017 13:00 7,9 C 49 % 1002,5 hPa 0,0 l/m 10,4 km/h N -2,1 C 5,1 C 37,8 km/h
14.12.2017 14:00 7,8 C 48 % 1002,9 hPa 0,0 l/m 5,4 km/h N -2,6 C 7,3 C 22,9 km/h
14.12.2017 15:00 7,7 C 48 % 1003,5 hPa 0,0 l/m 4,8 km/h N -2,7 C 7,6 C 20,5 km/h
14.12.2017 16:00 6,6 C 52 % 1004,0 hPa 0,0 l/m 0,6 km/h N -2,7 C 6,6 C 5,2 km/h
14.12.2017 17:00 4,0 C 61 % 1004,1 hPa 0,0 l/m 0,0 km/h N -2,8 C 4,0 C 2,0 km/h
14.12.2017 18:00 2,6 C 69 % 1003,8 hPa 0,0 l/m 0,1 km/h N -2,6 C 2,6 C 1,2 km/h
14.12.2017 19:00 2,1 C 71 % 1003,3 hPa 0,0 l/m 0,1 km/h N -2,6 C 2,1 C 1,2 km/h
14.12.2017 20:00 1,5 C 73 % 1002,3 hPa 0,0 l/m 0,0 km/h N -2,8 C 1,5 C 0,8 km/h
14.12.2017 21:00 1,2 C 75 % 1001,8 hPa 0,0 l/m 0,0 km/h N -2,7 C 1,2 C 0,8 km/h
14.12.2017 22:00 1,1 C 76 % 1000,2 hPa 0,0 l/m 0,0 km/h N -2,6 C 1,1 C 0,0 km/h
14.12.2017 23:00 1,4 C 79 % 999,5 hPa 0,0 l/m 0,3 km/h N -1,9 C 1,4 C 5,2 km/h
15.12.2017 00:00 3,3 C 74 % 998,5 hPa 0,0 l/m 0,1 km/h N -0,9 C 3,3 C 2,0 km/h
15.12.2017 01:00 2,0 C 74 % 998,0 hPa 0,0 l/m 0,0 km/h N -2,1 C 2,0 C 0,8 km/h
15.12.2017 02:00 0,4 C 78 % 997,2 hPa 0,0 l/m 0,0 km/h N -3,0 C 0,4 C 0,0 km/h
15.12.2017 03:00 -0,7 C 81 % 996,9 hPa 0,0 l/m 0,0 km/h N -3,6 C -0,7 C 0,0 km/h
15.12.2017 04:00 -0,8 C 83 % 996,3 hPa 0,0 l/m 0,0 km/h N -3,3 C -0,8 C 0,0 km/h
15.12.2017 05:00 -1,1 C 83 % 996,2 hPa 0,0 l/m 0,0 km/h N -3,6 C -1,1 C 0,4 km/h
15.12.2017 06:00 -1,3 C 84 % 996,3 hPa 0,0 l/m 0,0 km/h N -3,7 C -1,3 C 1,2 km/h
15.12.2017 07:00 -1,3 C 84 % 997,9 hPa 0,0 l/m 0,0 km/h N -3,7 C -1,3 C 2,0 km/h
15.12.2017 08:00 3,4 C 83 % 998,3 hPa 0,0 l/m 3,2 km/h N 0,8 C 3,4 C 15,3 km/h
15.12.2017 09:00 4,7 C 79 % 998,8 hPa 0,0 l/m 0,2 km/h N 1,3 C 4,7 C 2,8 km/h
15.12.2017 10:00 6,3 C 69 % 999,5 hPa 0,0 l/m 2,3 km/h N 1,1 C 6,3 C 13,3 km/h
15.12.2017 11:00 7,4 C 59 % 999,2 hPa 0,0 l/m 4,9 km/h N -0,0 C 7,3 C 18,9 km/h
15.12.2017 12:00 7,8 C 56 % 999,4 hPa 0,0 l/m 5,8 km/h N -0,4 C 7,5 C 21,7 km/h
15.12.2017 13:00 7,5 C 58 % 999,8 hPa 0,0 l/m 4,4 km/h N -0,1 C 7,5 C 16,9 km/h
15.12.2017 14:00 7,1 C 61 % 1000,3 hPa 0,0 l/m 4,5 km/h N -0,0 C 6,6 C 19,7 km/h
15.12.2017 15:00 6,5 C 62 % 1001,1 hPa 0,0 l/m 4,6 km/h N -0,2 C 6,5 C 16,9 km/h
15.12.2017 16:00 6,1 C 64 % 1001,3 hPa 0,0 l/m 1,0 km/h N -0,3 C 6,1 C 6,4 km/h
15.12.2017 17:00 5,3 C 67 % 1001,8 hPa 0,0 l/m 0,0 km/h N -0,3 C 5,3 C 1,6 km/h
15.12.2017 18:00 4,6 C 71 % 1001,8 hPa 0,0 l/m 0,0 km/h N -0,3 C 4,6 C 0,0 km/h
15.12.2017 19:00 3,8 C 74 % 1001,4 hPa 0,0 l/m 0,0 km/h N -0,4 C 3,8 C 0,4 km/h
15.12.2017 20:00 3,9 C 75 % 1000,8 hPa 0,0 l/m 0,1 km/h N -0,1 C 3,9 C 2,0 km/h
15.12.2017 21:00 3,3 C 76 % 1001,6 hPa 0,0 l/m 0,0 km/h N -0,6 C 3,3 C 0,0 km/h
15.12.2017 22:00 2,5 C 78 % 1001,5 hPa 0,0 l/m 0,0 km/h N -0,9 C 2,5 C 0,0 km/h
15.12.2017 23:00 2,5 C 80 % 1001,3 hPa 0,0 l/m 0,0 km/h N -0,5 C 2,5 C 0,0 km/h
16.12.2017 00:00 2,5 C 80 % 1000,8 hPa 0,0 l/m 0,2 km/h N -0,6 C 2,5 C 3,2 km/h
16.12.2017 01:00 3,2 C 78 % 1000,6 hPa 0,0 l/m 0,3 km/h N -0,3 C 3,2 C 4,4 km/h
16.12.2017 02:00 3,7 C 75 % 1000,9 hPa 0,0 l/m 2,3 km/h N -0,4 C 3,7 C 10,5 km/h
16.12.2017 03:00 4,2 C 72 % 1000,6 hPa 0,0 l/m 5,7 km/h N -0,4 C 3,8 C 14,5 km/h
16.12.2017 04:00 4,4 C 70 % 1000,8 hPa 0,0 l/m 6,7 km/h N -0,5 C 3,9 C 18,5 km/h
16.12.2017 05:00 4,2 C 72 % 1001,4 hPa 0,0 l/m 6,4 km/h N -0,5 C 3,8 C 18,1 km/h
16.12.2017 06:00 3,6 C 73 % 1001,7 hPa 0,0 l/m 5,2 km/h N -0,8 C 3,6 C 15,3 km/h
16.12.2017 07:00 3,3 C 74 % 1002,3 hPa 0,0 l/m 2,4 km/h N -1,0 C 3,3 C 8,0 km/h
16.12.2017 08:00 3,6 C 71 % 1003,5 hPa 0,0 l/m 4,0 km/h N -1,2 C 3,6 C 14,1 km/h
16.12.2017 09:00 4,1 C 71 % 1004,7 hPa 0,0 l/m 4,6 km/h N -0,7 C 4,1 C 14,1 km/h
16.12.2017 10:00 4,4 C 71 % 1005,9 hPa 0,0 l/m 2,9 km/h N -0,5 C 4,4 C 11,6 km/h
16.12.2017 11:00 4,8 C 68 % 1006,3 hPa 0,0 l/m 7,5 km/h N -0,6 C 3,8 C 19,3 km/h
16.12.2017 12:00 4,8 C 68 % 1007,0 hPa 0,0 l/m 6,8 km/h N -0,6 C 3,9 C 20,1 km/h
16.12.2017 13:00 4,8 C 69 % 1007,7 hPa 0,0 l/m 3,9 km/h N -0,3 C 4,8 C 14,1 km/h
16.12.2017 14:00 4,5 C 74 % 1008,3 hPa 0,0 l/m 4,6 km/h N 0,2 C 4,4 C 14,9 km/h
16.12.2017 15:00 4,2 C 75 % 1009,0 hPa 0,0 l/m 0,6 km/h N 0,0 C 4,2 C 4,8 km/h
16.12.2017 16:00 3,1 C 77 % 1010,0 hPa 0,0 l/m 0,0 km/h N -0,6 C 3,1 C 1,2 km/h
16.12.2017 17:00 2,7 C 79 % 1010,7 hPa 0,0 l/m 0,0 km/h N -0,6 C 2,7 C 1,6 km/h
16.12.2017 18:00 3,1 C 81 % 1011,1 hPa 0,0 l/m 0,4 km/h N 0,1 C 3,1 C 4,4 km/h
16.12.2017 19:00 3,3 C 80 % 1011,8 hPa 0,0 l/m 1,2 km/h N 0,2 C 3,3 C 6,4 km/h
16.12.2017 20:00 3,8 C 79 % 1012,3 hPa 0,0 l/m 1,0 km/h N 0,5 C 3,8 C 6,8 km/h
16.12.2017 21:00 3,6 C 80 % 1012,8 hPa 0,0 l/m 0,4 km/h N 0,4 C 3,6 C 3,2 km/h
16.12.2017 22:00 3,7 C 80 % 1013,6 hPa 0,0 l/m 3,2 km/h N 0,6 C 3,7 C 10,5 km/h
16.12.2017 23:00 3,8 C 79 % 1014,5 hPa 0,0 l/m 8,0 km/h N 0,5 C 2,3 C 18,9 km/h
17.12.2017 00:00 3,5 C 78 % 1014,8 hPa 0,0 l/m 6,7 km/h N 0,0 C 2,8 C 19,3 km/h
17.12.2017 01:00 2,9 C 77 % 1014,9 hPa 0,0 l/m 6,4 km/h N -0,7 C 2,7 C 18,9 km/h
17.12.2017 02:00 2,5 C 76 % 1015,5 hPa 0,0 l/m 4,4 km/h N -1,3 C 2,4 C 18,1 km/h
17.12.2017 03:00 2,4 C 77 % 1015,7 hPa 0,0 l/m 7,2 km/h N -1,3 C 1,5 C 21,3 km/h
17.12.2017 04:00 2,3 C 75 % 1016,1 hPa 0,0 l/m 5,7 km/h N -1,7 C 2,2 C 20,9 km/h
17.12.2017 05:00 2,4 C 73 % 1016,3 hPa 0,0 l/m 6,4 km/h N -1,9 C 1,9 C 18,1 km/h
17.12.2017 06:00 2,6 C 74 % 1016,8 hPa 0,0 l/m 7,9 km/h N -1,6 C 1,2 C 22,5 km/h
17.12.2017 07:00 2,5 C 75 % 1017,2 hPa 0,0 l/m 4,3 km/h N -1,5 C 2,5 C 16,9 km/h
17.12.2017 08:00 2,6 C 75 % 1017,7 hPa 0,0 l/m 5,4 km/h N -1,5 C 2,3 C 18,1 km/h
17.12.2017 09:00 3,3 C 70 % 1018,1 hPa 0,0 l/m 8,1 km/h N -1,7 C 1,8 C 20,5 km/h
17.12.2017 10:00 4,1 C 68 % 1018,4 hPa 0,0 l/m 8,4 km/h N -1,3 C 2,4 C 23,3 km/h
17.12.2017 11:00 4,3 C 68 % 1018,6 hPa 0,0 l/m 7,8 km/h N -1,1 C 3,1 C 22,9 km/h
17.12.2017 12:00 4,3 C 69 % 1018,7 hPa 0,0 l/m 7,1 km/h N -1,0 C 3,1 C 21,3 km/h
17.12.2017 13:00 4,4 C 68 % 1018,8 hPa 0,0 l/m 7,1 km/h N -0,9 C 3,4 C 20,5 km/h
17.12.2017 14:00 4,4 C 67 % 1018,8 hPa 0,0 l/m 6,7 km/h N -1,1 C 3,8 C 19,3 km/h
17.12.2017 15:00 3,4 C 73 % 1019,5 hPa 0,0 l/m 6,8 km/h N -0,9 C 2,8 C 19,7 km/h
17.12.2017 16:00 2,7 C 80 % 1019,8 hPa 0,0 l/m 6,8 km/h N -0,4 C 2,1 C 17,7 km/h
17.12.2017 17:00 2,4 C 79 % 1020,5 hPa 0,0 l/m 4,4 km/h N -0,8 C 2,4 C 13,7 km/h
17.12.2017 18:00 1,9 C 81 % 1021,0 hPa 0,0 l/m 4,2 km/h N -1,0 C 1,9 C 10,9 km/h
17.12.2017 19:00 2,0 C 81 % 1021,7 hPa 0,0 l/m 4,3 km/h N -0,9 C 2,0 C 12,5 km/h
17.12.2017 20:00 1,8 C 82 % 1021,8 hPa 0,0 l/m 3,2 km/h N -1,0 C 1,8 C 13,3 km/h
17.12.2017 21:00 1,9 C 82 % 1021,9 hPa 0,0 l/m 5,6 km/h N -0,9 C 1,7 C 19,3 km/h
17.12.2017 22:00 1,9 C 82 % 1022,3 hPa 0,0 l/m 7,8 km/h N -0,9 C 0,5 C 22,5 km/h
17.12.2017 23:00 1,5 C 82 % 1022,8 hPa 0,0 l/m 7,1 km/h N -1,2 C 0,5 C 18,5 km/h
Min-Datum _ 15.12.17 14.12.17 11.12.17 - 11.12.17 - 14.12.17 15.12.17 13.12.17
_ Min-Zeit 06:45 14:30 17:30 - 00:30 - 03:00 06:45 17:15
Minimum _ -1,6 C 47 % 992,8 hPa - 0,0 km/h - -4,3 C -1,6 C 0,0 km/h
Max-Datum _ 12.12.17 14.12.17 17.12.17 12.12.17 14.12.17 - 11.12.17 12.12.17 14.12.17
_ Max-Zeit 02:30 04:15 23:45 06:30 11:45 - 17:30 02:30 12:00
Maximum _ 12,4 C 84 % 1022,9 hPa 0,3 l/m 18,8 km/h
N
- 7,4 C 12,4 C 54,7 km/h
N
Durchschnitt _ 4,6 C 73 % 1006,0 hPa #0,3 l/m 3,4 km/h N 0,1 C 4,2 C 12,7 km/h